Terminal Aerodrome Forecast
Issued by NWS

Home | Current Version | Previous Version | Graphics & Text | Print | Product List | Glossary On
Versions: 1 2 3 4 5 6 7 8 9 10 11 12 13 14 15 16 17 18 19 20
000
FTUS41 KCLE 250500
TAFFDY
TAF
KFDY 250530Z 2506/2606 10005KT P6SM SCT035 BKN100
     FM251000 13004KT 5SM BR SCT035 BKN100
     FM251400 18005KT P6SM SCT035
     FM260000 15005KT P6SM FEW050 SCT100=

USA.gov is the U.S. government's official web portal to all federal, state and local government web resources and services.